createdAt,value
2022-09-17T00:00:20.797Z,41.05
2022-09-17T00:00:52.210Z,41.19
2022-09-17T00:01:23.904Z,41.01
2022-09-17T00:01:55.408Z,41.18
2022-09-17T00:02:27.316Z,41.14
2022-09-17T00:02:58.814Z,41.02
2022-09-17T00:03:30.301Z,41.25
2022-09-17T00:04:01.681Z,40.89
2022-09-17T00:04:33.297Z,41.01
2022-09-17T00:05:07.353Z,41.08
2022-09-17T00:05:38.794Z,41.05
2022-09-17T00:06:10.198Z,40.94
2022-09-17T00:06:41.731Z,41.26
2022-09-17T00:07:15.679Z,40.92
2022-09-17T00:07:49.814Z,41.35
2022-09-17T00:08:21.214Z,41.52
2022-09-17T00:08:53.006Z,41.49
2022-09-17T00:09:24.464Z,41.30
2022-09-17T00:09:55.923Z,41.38
2022-09-17T00:10:27.438Z,41.34
2022-09-17T00:10:58.871Z,41.17
2022-09-17T00:11:35.528Z,41.31
2022-09-17T00:12:07.246Z,41.10
2022-09-17T00:12:38.657Z,41.16
2022-09-17T00:13:12.913Z,41.25
2022-09-17T00:13:44.408Z,41.13
2022-09-17T00:14:15.902Z,41.16
2022-09-17T00:14:47.347Z,41.19
2022-09-17T00:15:21.085Z,41.26
2022-09-17T00:15:52.712Z,41.22
2022-09-17T00:16:24.258Z,41.13
2022-09-17T00:16:58.799Z,41.32
2022-09-17T00:17:33.245Z,41.25
2022-09-17T00:18:04.633Z,41.23
2022-09-17T00:18:36.285Z,41.10
2022-09-17T00:19:07.716Z,41.05
2022-09-17T00:19:39.275Z,41.29
2022-09-17T00:20:10.676Z,41.50
2022-09-17T00:20:42.096Z,41.42
2022-09-17T00:21:13.592Z,41.38
2022-09-17T00:21:45.198Z,41.18
2022-09-17T00:22:16.739Z,41.28
2022-09-17T00:22:48.134Z,41.21
2022-09-17T00:23:19.591Z,41.18
2022-09-17T00:23:51.344Z,41.47
2022-09-17T00:24:22.863Z,41.31
2022-09-17T00:24:54.302Z,41.06
2022-09-17T00:25:25.717Z,41.03
2022-09-17T00:25:57.322Z,40.98
2022-09-17T00:26:34.429Z,41.27
2022-09-17T00:27:05.881Z,41.22
2022-09-17T00:27:37.629Z,41.19
2022-09-17T00:28:09.086Z,41.11
2022-09-17T00:28:40.477Z,41.23
2022-09-17T00:29:11.912Z,41.57
2022-09-17T00:29:44.832Z,41.01
2022-09-17T00:30:16.361Z,41.10
2022-09-17T00:30:47.843Z,41.19
2022-09-17T00:31:19.349Z,41.11
2022-09-17T00:31:51.471Z,41.39
2022-09-17T00:32:23.027Z,41.17
2022-09-17T00:32:57.348Z,41.07
2022-09-17T00:33:28.791Z,41.27
2022-09-17T00:34:00.287Z,41.14
2022-09-17T00:34:31.691Z,41.03
2022-09-17T00:35:03.244Z,41.39
2022-09-17T00:35:34.820Z,41.05
2022-09-17T00:36:06.197Z,41.15
2022-09-17T00:36:37.560Z,41.31
2022-09-17T00:37:09.276Z,41.23
2022-09-17T00:37:43.679Z,41.25
2022-09-17T00:38:15.245Z,41.43
2022-09-17T00:38:46.724Z,41.37
2022-09-17T00:39:18.159Z,41.25
2022-09-17T00:39:49.749Z,41.25
2022-09-17T00:40:21.418Z,41.17
2022-09-17T00:40:52.976Z,41.14
2022-09-17T00:41:24.359Z,41.10
2022-09-17T00:41:55.808Z,40.99
2022-09-17T00:42:27.292Z,41.32
2022-09-17T00:42:58.664Z,41.37
2022-09-17T00:43:30.245Z,41.53
2022-09-17T00:44:01.829Z,40.85
2022-09-17T00:44:33.290Z,41.27
2022-09-17T00:45:07.450Z,41.11
2022-09-17T00:45:40.032Z,41.16
2022-09-17T00:46:11.597Z,41.16
2022-09-17T00:46:43.204Z,40.91
2022-09-17T00:47:14.903Z,40.79
2022-09-17T00:47:46.361Z,41.22
2022-09-17T00:48:17.770Z,40.84
2022-09-17T00:48:49.273Z,40.99
2022-09-17T00:49:20.794Z,41.14
2022-09-17T00:49:52.422Z,40.86
2022-09-17T00:50:23.825Z,40.92
2022-09-17T00:50:55.361Z,40.81
2022-09-17T00:51:26.898Z,41.31
2022-09-17T00:52:01.322Z,40.97
2022-09-17T00:52:32.824Z,40.82
2022-09-17T00:53:04.277Z,41.10
2022-09-17T00:53:35.677Z,40.88
2022-09-17T00:54:07.262Z,40.81
2022-09-17T00:54:38.674Z,40.92
2022-09-17T00:55:10.072Z,40.70
2022-09-17T00:55:41.470Z,41.05
2022-09-17T00:56:12.997Z,40.82
2022-09-17T00:56:44.651Z,40.91
2022-09-17T00:57:16.040Z,41.06
2022-09-17T00:57:47.747Z,41.04
2022-09-17T00:58:19.178Z,40.86
2022-09-17T00:58:51.022Z,40.84
2022-09-17T00:59:22.479Z,40.66
2022-09-17T00:59:54.070Z,40.94
2022-09-17T01:00:25.481Z,41.02
2022-09-17T01:00:57.152Z,40.93
2022-09-17T01:01:28.645Z,41.09
2022-09-17T01:02:00.242Z,41.02
2022-09-17T01:02:31.757Z,40.71
2022-09-17T01:03:03.333Z,41.11
2022-09-17T01:03:34.783Z,40.91
2022-09-17T01:04:06.190Z,40.84
2022-09-17T01:04:37.582Z,40.83
2022-09-17T01:05:09.071Z,40.68
2022-09-17T01:05:40.516Z,40.91
2022-09-17T01:06:12.166Z,40.93
2022-09-17T01:06:43.559Z,40.63
2022-09-17T01:07:14.957Z,40.73
2022-09-17T01:07:46.399Z,40.90
2022-09-17T01:08:17.841Z,40.81
2022-09-17T01:08:49.362Z,40.85
2022-09-17T01:09:20.821Z,40.55
2022-09-17T01:09:52.476Z,40.96
2022-09-17T01:10:23.864Z,40.91
2022-09-17T01:10:55.292Z,40.86
2022-09-17T01:11:26.793Z,40.64
2022-09-17T01:11:58.293Z,40.60
2022-09-17T01:12:29.817Z,40.81
2022-09-17T01:13:01.236Z,40.80
2022-09-17T01:13:32.819Z,40.51
2022-09-17T01:14:04.396Z,40.22
2022-09-17T01:14:35.894Z,40.19
2022-09-17T01:15:07.310Z,40.60
2022-09-17T01:15:38.816Z,40.81
2022-09-17T01:16:10.377Z,40.70
2022-09-17T01:16:42.073Z,40.79
2022-09-17T01:17:13.562Z,40.67
2022-09-17T01:17:45.026Z,40.64
2022-09-17T01:18:16.431Z,40.62
2022-09-17T01:18:48.107Z,40.72
2022-09-17T01:19:19.483Z,40.75
2022-09-17T01:19:51.103Z,41.10
2022-09-17T01:20:22.576Z,41.00
2022-09-17T01:20:54.163Z,40.80
2022-09-17T01:21:25.542Z,40.64
2022-09-17T01:21:57.327Z,40.85
2022-09-17T01:22:28.854Z,40.72
2022-09-17T01:23:00.304Z,40.68
2022-09-17T01:23:31.717Z,40.65
2022-09-17T01:24:03.251Z,40.97
2022-09-17T01:24:34.626Z,40.88
2022-09-17T01:25:06.153Z,40.54
2022-09-17T01:25:37.644Z,40.71
2022-09-17T01:26:11.521Z,40.54
2022-09-17T01:26:42.989Z,40.50
2022-09-17T01:27:14.485Z,40.41
2022-09-17T01:27:46.009Z,40.34
2022-09-17T01:28:17.504Z,40.59
2022-09-17T01:28:49.069Z,40.57
2022-09-17T01:29:20.473Z,40.51
2022-09-17T01:29:51.864Z,40.68
2022-09-17T01:30:23.349Z,40.51
2022-09-17T01:30:54.791Z,40.48
2022-09-17T01:31:26.508Z,40.31
2022-09-17T01:31:57.938Z,40.54
2022-09-17T01:32:29.455Z,40.63
2022-09-17T01:33:00.972Z,40.47
2022-09-17T01:33:35.515Z,40.54
2022-09-17T01:34:06.995Z,40.57
2022-09-17T01:34:38.431Z,40.49
2022-09-17T01:35:09.831Z,40.47
2022-09-17T01:35:41.351Z,40.58
2022-09-17T01:36:12.842Z,40.30
2022-09-17T01:36:44.266Z,40.58
2022-09-17T01:37:15.767Z,40.55
2022-09-17T01:37:47.590Z,40.38
2022-09-17T01:38:19.093Z,40.30
2022-09-17T01:38:50.547Z,40.40
2022-09-17T01:39:22.061Z,40.37
2022-09-17T01:39:53.581Z,40.34
2022-09-17T01:40:31.072Z,40.33
2022-09-17T01:41:02.661Z,40.19
2022-09-17T01:41:34.089Z,40.28
2022-09-17T01:42:05.520Z,40.14
2022-09-17T01:42:37.070Z,40.22
2022-09-17T01:43:08.514Z,40.51
2022-09-17T01:43:40.243Z,40.26
2022-09-17T01:44:11.770Z,40.22
2022-09-17T01:44:43.281Z,40.41
2022-09-17T01:45:14.763Z,40.32
2022-09-17T01:45:46.492Z,40.67
2022-09-17T01:46:17.911Z,40.42
2022-09-17T01:46:49.399Z,40.38
2022-09-17T01:47:21.346Z,40.51
2022-09-17T01:47:52.944Z,40.27
2022-09-17T01:48:24.395Z,40.34
2022-09-17T01:48:55.810Z,40.11
2022-09-17T01:49:27.300Z,40.28
2022-09-17T01:49:58.878Z,39.99
2022-09-17T01:50:30.522Z,40.18
2022-09-17T01:51:01.924Z,39.72
2022-09-17T01:51:33.443Z,39.92
2022-09-17T01:52:04.870Z,40.10
2022-09-17T01:52:39.190Z,40.04
2022-09-17T01:53:10.693Z,40.19
2022-09-17T01:53:42.120Z,40.28
2022-09-17T01:54:13.613Z,40.42
2022-09-17T01:54:45.267Z,40.12
2022-09-17T01:55:16.777Z,40.00
2022-09-17T01:55:48.230Z,39.97
2022-09-17T01:56:19.738Z,40.01
2022-09-17T01:56:51.327Z,40.20
2022-09-17T01:57:22.922Z,40.13
2022-09-17T01:57:54.418Z,40.03
2022-09-17T01:58:25.981Z,40.25
2022-09-17T01:58:57.426Z,39.85
2022-09-17T01:59:31.869Z,39.97
2022-09-17T02:00:06.252Z,39.76
2022-09-17T02:00:38.030Z,40.15
2022-09-17T02:01:09.584Z,40.06
2022-09-17T02:01:41.072Z,39.92
2022-09-17T02:02:12.657Z,39.89
2022-09-17T02:02:44.259Z,40.07
2022-09-17T02:03:15.828Z,40.06
2022-09-17T02:03:47.264Z,40.03
2022-09-17T02:04:18.688Z,39.74
2022-09-17T02:04:50.358Z,39.78
2022-09-17T02:05:21.960Z,39.96
2022-09-17T02:05:53.357Z,39.97
2022-09-17T02:06:24.968Z,39.95
2022-09-17T02:06:56.380Z,39.92
2022-09-17T02:07:28.036Z,40.26
2022-09-17T02:07:59.429Z,39.86
2022-09-17T02:08:31.116Z,40.06
2022-09-17T02:09:02.645Z,40.06
2022-09-17T02:09:34.023Z,40.30
2022-09-17T02:10:05.505Z,40.17
2022-09-17T02:10:36.938Z,40.25
2022-09-17T02:11:08.465Z,40.16
2022-09-17T02:11:39.887Z,40.27
2022-09-17T02:12:11.360Z,40.23
2022-09-17T02:12:42.939Z,40.21
2022-09-17T02:13:14.433Z,40.28
2022-09-17T02:13:45.914Z,39.94
2022-09-17T02:14:17.316Z,40.03
2022-09-17T02:14:48.980Z,40.34
2022-09-17T02:15:23.563Z,40.00
2022-09-17T02:15:55.046Z,39.94
2022-09-17T02:16:26.914Z,40.10
2022-09-17T02:16:58.374Z,40.32
2022-09-17T02:17:30.027Z,40.42
2022-09-17T02:18:01.467Z,40.40
2022-09-17T02:18:35.860Z,40.14
2022-09-17T02:19:07.282Z,40.50
2022-09-17T02:19:38.752Z,40.44
2022-09-17T02:20:10.155Z,40.42
2022-09-17T02:20:41.745Z,40.21
2022-09-17T02:21:13.192Z,40.32
2022-09-17T02:21:44.554Z,40.50
2022-09-17T02:22:16.013Z,40.12
2022-09-17T02:22:47.482Z,39.78
2022-09-17T02:23:19.257Z,40.21
2022-09-17T02:23:50.646Z,40.06
2022-09-17T02:24:22.171Z,40.03
2022-09-17T02:24:53.610Z,40.00
2022-09-17T02:25:25.011Z,40.01
2022-09-17T02:25:56.495Z,40.03
2022-09-17T02:26:27.949Z,40.01
2022-09-17T02:26:59.365Z,40.15
2022-09-17T02:27:30.778Z,40.27
2022-09-17T02:28:03.535Z,40.24
2022-09-17T02:28:35.245Z,40.08
2022-09-17T02:29:06.707Z,40.27
2022-09-17T02:29:40.885Z,40.41
2022-09-17T02:30:12.357Z,40.19
2022-09-17T02:30:43.846Z,40.44
2022-09-17T02:31:15.415Z,40.19
2022-09-17T02:31:47.021Z,40.53
2022-09-17T02:32:18.577Z,40.52
2022-09-17T02:32:49.988Z,40.45
2022-09-17T02:33:21.439Z,40.22
2022-09-17T02:33:53.273Z,40.36
2022-09-17T02:34:24.801Z,40.37
2022-09-17T02:34:56.182Z,40.28
2022-09-17T02:35:27.756Z,40.23
2022-09-17T02:35:59.202Z,40.02
2022-09-17T02:36:34.258Z,39.88
2022-09-17T02:37:05.710Z,40.18
2022-09-17T02:37:40.214Z,39.82
2022-09-17T02:38:11.741Z,39.88
2022-09-17T02:38:43.185Z,39.69
2022-09-17T02:39:14.657Z,39.68
2022-09-17T02:39:46.153Z,39.81
2022-09-17T02:40:20.443Z,39.61
2022-09-17T02:40:52.008Z,39.52
2022-09-17T02:41:23.435Z,39.77
2022-09-17T02:41:54.938Z,39.43
2022-09-17T02:42:26.680Z,39.74
2022-09-17T02:42:58.198Z,39.50
2022-09-17T02:43:29.786Z,39.82
2022-09-17T02:44:01.380Z,39.68
2022-09-17T02:44:32.949Z,39.85
2022-09-17T02:45:04.959Z,39.92
2022-09-17T02:45:36.382Z,39.75
2022-09-17T02:46:07.868Z,39.79
2022-09-17T02:46:39.407Z,39.82
2022-09-17T02:47:10.897Z,39.87
2022-09-17T02:47:42.316Z,39.83
2022-09-17T02:48:13.857Z,39.62
2022-09-17T02:48:45.312Z,39.60
2022-09-17T02:49:16.691Z,39.75
2022-09-17T02:49:48.329Z,39.96
2022-09-17T02:50:19.733Z,39.98
2022-09-17T02:50:51.276Z,40.30
2022-09-17T02:51:22.702Z,39.62
2022-09-17T02:51:54.153Z,39.79
2022-09-17T02:52:25.693Z,39.87
2022-09-17T02:52:57.099Z,39.78
2022-09-17T02:53:28.648Z,39.87
2022-09-17T02:54:00.114Z,39.91
2022-09-17T02:54:31.787Z,39.81
2022-09-17T02:55:03.239Z,39.79
2022-09-17T02:55:34.924Z,39.83
2022-09-17T02:56:06.297Z,39.90
2022-09-17T02:56:37.795Z,39.90
2022-09-17T02:57:09.226Z,39.90
2022-09-17T02:57:40.782Z,39.66
2022-09-17T02:58:12.263Z,39.84
2022-09-17T02:58:43.676Z,39.78
2022-09-17T02:59:15.301Z,39.61
2022-09-17T02:59:46.774Z,39.86
2022-09-17T03:00:18.329Z,39.71
2022-09-17T03:00:49.759Z,40.00
2022-09-17T03:01:21.363Z,39.79
2022-09-17T03:01:52.884Z,39.81
2022-09-17T03:02:24.341Z,39.76
2022-09-17T03:02:55.819Z,39.81
2022-09-17T03:03:27.249Z,39.86
2022-09-17T03:03:58.961Z,39.98
2022-09-17T03:04:30.308Z,39.92
2022-09-17T03:05:01.759Z,39.97
2022-09-17T03:05:33.119Z,40.10
2022-09-17T03:06:04.513Z,40.15
2022-09-17T03:06:36.003Z,40.06
2022-09-17T03:07:07.418Z,39.95
2022-09-17T03:07:38.827Z,39.98
2022-09-17T03:08:10.299Z,39.93
2022-09-17T03:08:41.916Z,39.95
2022-09-17T03:09:13.410Z,39.95
2022-09-17T03:09:44.826Z,39.86
2022-09-17T03:10:16.390Z,39.76
2022-09-17T03:10:47.856Z,39.70
2022-09-17T03:11:19.352Z,39.91
2022-09-17T03:11:50.893Z,39.75
2022-09-17T03:12:22.440Z,39.79
2022-09-17T03:12:53.813Z,39.70
2022-09-17T03:13:25.275Z,39.92
2022-09-17T03:13:56.803Z,39.77
2022-09-17T03:14:28.364Z,39.91
2022-09-17T03:15:03.370Z,39.83
2022-09-17T03:15:35.083Z,39.75
2022-09-17T03:16:06.707Z,40.02
2022-09-17T03:16:38.247Z,39.70
2022-09-17T03:17:09.699Z,39.95
2022-09-17T03:17:41.220Z,40.07
2022-09-17T03:18:12.678Z,40.05
2022-09-17T03:18:44.101Z,39.98
2022-09-17T03:19:15.577Z,40.27
2022-09-17T03:19:47.204Z,40.18
2022-09-17T03:20:18.599Z,40.04
2022-09-17T03:20:50.095Z,40.14
2022-09-17T03:21:21.556Z,40.12
2022-09-17T03:21:53.024Z,40.20
2022-09-17T03:22:24.511Z,40.19
2022-09-17T03:22:55.999Z,40.17
2022-09-17T03:23:27.668Z,40.13
2022-09-17T03:23:59.085Z,40.13
2022-09-17T03:24:30.525Z,40.08
2022-09-17T03:25:02.064Z,40.23
2022-09-17T03:25:33.456Z,40.23
2022-09-17T03:26:04.902Z,39.95
2022-09-17T03:26:36.395Z,40.00
2022-09-17T03:27:07.818Z,39.79
2022-09-17T03:27:39.258Z,39.98
2022-09-17T03:28:10.757Z,40.03
2022-09-17T03:28:42.222Z,39.83
2022-09-17T03:29:13.599Z,40.00
2022-09-17T03:29:45.082Z,40.09
2022-09-17T03:30:16.586Z,39.87
2022-09-17T03:30:51.015Z,40.08
2022-09-17T03:31:22.478Z,40.09
2022-09-17T03:31:53.905Z,40.18
2022-09-17T03:32:25.437Z,39.88
2022-09-17T03:32:56.941Z,39.97
2022-09-17T03:33:28.377Z,39.95
2022-09-17T03:33:59.795Z,39.90
2022-09-17T03:34:31.463Z,39.98
2022-09-17T03:35:02.831Z,39.96
2022-09-17T03:35:34.370Z,39.98
2022-09-17T03:36:05.864Z,40.02
2022-09-17T03:36:37.391Z,40.03
2022-09-17T03:37:08.881Z,40.24
2022-09-17T03:37:40.283Z,40.09
2022-09-17T03:38:11.873Z,40.20
2022-09-17T03:38:43.307Z,39.96
2022-09-17T03:39:14.734Z,40.27
2022-09-17T03:39:46.260Z,39.99
2022-09-17T03:40:17.770Z,40.11
2022-09-17T03:40:49.556Z,40.16
2022-09-17T03:41:21.007Z,40.19
2022-09-17T03:41:52.435Z,39.91
2022-09-17T03:42:23.876Z,39.97
2022-09-17T03:42:55.405Z,39.76
2022-09-17T03:43:26.858Z,39.88
2022-09-17T03:43:58.854Z,39.91
2022-09-17T03:44:30.244Z,40.19
2022-09-17T03:45:02.325Z,40.24
2022-09-17T03:45:39.345Z,40.03
2022-09-17T03:46:10.891Z,40.01
2022-09-17T03:46:42.468Z,40.02
2022-09-17T03:47:13.987Z,40.00
2022-09-17T03:47:45.746Z,40.18
2022-09-17T03:48:17.321Z,40.21
2022-09-17T03:48:48.719Z,40.01
2022-09-17T03:49:20.404Z,40.05
2022-09-17T03:49:51.815Z,40.03
2022-09-17T03:50:23.244Z,40.19
2022-09-17T03:50:54.774Z,39.97
2022-09-17T03:51:26.350Z,40.19
2022-09-17T03:51:57.820Z,40.19
2022-09-17T03:52:29.265Z,40.04
2022-09-17T03:53:00.750Z,40.22
2022-09-17T03:53:32.170Z,40.04
2022-09-17T03:54:03.685Z,40.17
2022-09-17T03:54:35.053Z,40.03
2022-09-17T03:55:06.565Z,40.15
2022-09-17T03:55:38.057Z,40.27
2022-09-17T03:56:09.479Z,40.11
2022-09-17T03:56:41.263Z,40.07
2022-09-17T03:57:12.918Z,40.10
2022-09-17T03:57:44.591Z,40.05
2022-09-17T03:58:16.007Z,40.07
2022-09-17T03:58:47.497Z,39.91
2022-09-17T03:59:18.936Z,40.09
2022-09-17T03:59:50.413Z,40.24
2022-09-17T04:00:21.869Z,40.11
2022-09-17T04:00:53.574Z,40.01
2022-09-17T04:01:27.952Z,40.12
2022-09-17T04:01:59.452Z,40.11
2022-09-17T04:02:30.951Z,40.18
2022-09-17T04:03:02.615Z,40.12
2022-09-17T04:03:34.269Z,40.05
2022-09-17T04:04:05.865Z,40.11
2022-09-17T04:04:37.297Z,40.02
2022-09-17T04:05:08.726Z,40.00
2022-09-17T04:05:40.320Z,40.28
2022-09-17T04:06:14.683Z,40.28
2022-09-17T04:06:46.176Z,40.28
2022-09-17T04:07:17.658Z,40.21
2022-09-17T04:07:49.102Z,40.20
2022-09-17T04:08:20.576Z,40.17
2022-09-17T04:08:52.342Z,40.19
2022-09-17T04:09:23.754Z,39.92
2022-09-17T04:09:55.223Z,40.16
2022-09-17T04:10:26.762Z,39.99
2022-09-17T04:10:58.368Z,39.99
2022-09-17T04:11:29.814Z,40.04
2022-09-17T04:12:01.362Z,40.15
2022-09-17T04:12:32.935Z,40.01
2022-09-17T04:13:04.387Z,39.98
2022-09-17T04:13:36.162Z,40.08
2022-09-17T04:14:07.620Z,40.21
2022-09-17T04:14:39.108Z,40.05
2022-09-17T04:15:10.578Z,40.04
2022-09-17T04:15:42.105Z,40.00
2022-09-17T04:16:13.573Z,40.09
2022-09-17T04:16:45.088Z,40.03
2022-09-17T04:17:16.496Z,40.01
2022-09-17T04:17:47.959Z,40.07
2022-09-17T04:18:19.603Z,40.07
2022-09-17T04:18:51.052Z,39.87
2022-09-17T04:19:22.492Z,39.75
2022-09-17T04:19:54.065Z,39.90
2022-09-17T04:20:25.552Z,39.87
2022-09-17T04:20:57.143Z,39.97
2022-09-17T04:21:28.743Z,40.06
2022-09-17T04:22:00.391Z,39.76
2022-09-17T04:22:31.951Z,40.01
2022-09-17T04:23:03.617Z,40.01
2022-09-17T04:23:35.314Z,39.94
2022-09-17T04:24:09.884Z,39.98
2022-09-17T04:24:41.326Z,39.99
2022-09-17T04:25:12.733Z,39.82
2022-09-17T04:25:44.279Z,39.91
2022-09-17T04:26:15.884Z,39.93
2022-09-17T04:26:47.335Z,39.77
2022-09-17T04:27:18.764Z,39.79
2022-09-17T04:27:50.234Z,39.97
2022-09-17T04:28:21.654Z,39.78
2022-09-17T04:28:53.116Z,39.84
2022-09-17T04:29:24.599Z,39.87
2022-09-17T04:29:56.019Z,39.99
2022-09-17T04:30:27.572Z,39.87
2022-09-17T04:30:59.102Z,40.04
2022-09-17T04:31:30.748Z,39.93
2022-09-17T04:32:02.291Z,39.90
2022-09-17T04:32:36.867Z,39.86
2022-09-17T04:33:08.292Z,40.03
2022-09-17T04:33:39.759Z,39.95
2022-09-17T04:34:11.211Z,39.91
2022-09-17T04:34:42.705Z,39.85
2022-09-17T04:35:14.268Z,39.76
2022-09-17T04:35:45.730Z,39.89
2022-09-17T04:36:17.303Z,39.95
2022-09-17T04:36:48.847Z,40.04
2022-09-17T04:37:20.230Z,39.71
2022-09-17T04:37:51.696Z,39.76
2022-09-17T04:38:23.120Z,39.67
2022-09-17T04:38:57.334Z,39.77
2022-09-17T04:39:28.764Z,39.90
2022-09-17T04:40:00.975Z,39.74
2022-09-17T04:40:34.332Z,39.57
2022-09-17T04:41:05.944Z,39.79
2022-09-17T04:41:37.468Z,39.64
2022-09-17T04:42:08.937Z,39.79
2022-09-17T04:42:40.352Z,39.86
2022-09-17T04:43:11.901Z,39.84
2022-09-17T04:43:43.319Z,39.78
2022-09-17T04:44:14.777Z,39.87
2022-09-17T04:44:46.256Z,39.94
2022-09-17T04:45:17.913Z,39.99
2022-09-17T04:45:49.472Z,39.85
2022-09-17T04:46:20.969Z,39.65
2022-09-17T04:46:52.543Z,40.01
2022-09-17T04:47:23.999Z,39.77
2022-09-17T04:47:58.301Z,39.88
2022-09-17T04:48:29.740Z,39.81
2022-09-17T04:49:01.167Z,39.87
2022-09-17T04:49:32.728Z,39.74
2022-09-17T04:50:04.144Z,39.82
2022-09-17T04:50:35.618Z,39.70
2022-09-17T04:51:07.037Z,39.77
2022-09-17T04:51:38.576Z,39.55
2022-09-17T04:52:10.007Z,39.65
2022-09-17T04:52:41.450Z,39.90
2022-09-17T04:53:12.999Z,39.87
2022-09-17T04:53:44.433Z,39.85
2022-09-17T04:54:18.807Z,39.74
2022-09-17T04:54:50.204Z,39.89
2022-09-17T04:55:21.691Z,39.84
2022-09-17T04:55:53.153Z,39.95
2022-09-17T04:56:24.704Z,39.76
2022-09-17T04:56:56.466Z,39.62
2022-09-17T04:57:27.880Z,39.77
2022-09-17T04:57:59.259Z,39.71
2022-09-17T04:58:30.651Z,39.91
2022-09-17T04:59:02.145Z,39.80
2022-09-17T04:59:33.622Z,39.78
2022-09-17T05:00:07.923Z,39.49
2022-09-17T05:00:39.503Z,39.80
2022-09-17T05:01:11.116Z,39.73
2022-09-17T05:01:42.652Z,39.70
2022-09-17T05:02:14.416Z,39.71
2022-09-17T05:02:46.137Z,39.60
2022-09-17T05:03:17.516Z,39.58
2022-09-17T05:03:48.927Z,39.60
2022-09-17T05:04:20.592Z,39.79
2022-09-17T05:04:52.017Z,39.68
2022-09-17T05:05:23.509Z,39.88
2022-09-17T05:05:54.899Z,39.82
2022-09-17T05:06:29.194Z,39.71
2022-09-17T05:07:00.799Z,39.60
2022-09-17T05:07:32.314Z,39.73
2022-09-17T05:08:06.767Z,39.66
2022-09-17T05:08:38.219Z,39.60
2022-09-17T05:09:09.615Z,39.55
2022-09-17T05:09:41.028Z,39.62
2022-09-17T05:10:12.460Z,39.61
2022-09-17T05:10:44.025Z,39.82
2022-09-17T05:11:15.446Z,39.70
2022-09-17T05:11:46.863Z,39.52
2022-09-17T05:12:18.289Z,39.74
2022-09-17T05:12:49.758Z,39.76
2022-09-17T05:13:21.361Z,39.74
2022-09-17T05:13:52.807Z,39.73
2022-09-17T05:14:24.479Z,39.59
2022-09-17T05:14:55.880Z,39.75
2022-09-17T05:15:27.455Z,39.65
2022-09-17T05:15:58.987Z,39.45
2022-09-17T05:16:30.650Z,39.63
2022-09-17T05:17:02.146Z,39.53
2022-09-17T05:17:33.910Z,39.68
2022-09-17T05:18:05.390Z,39.72
2022-09-17T05:18:36.840Z,39.52
2022-09-17T05:19:08.349Z,39.67
2022-09-17T05:19:39.742Z,39.45
2022-09-17T05:20:11.201Z,39.67
2022-09-17T05:20:42.610Z,39.73
2022-09-17T05:21:16.369Z,39.64
2022-09-17T05:21:47.822Z,39.70
2022-09-17T05:22:21.468Z,39.61
2022-09-17T05:22:53.149Z,39.60
2022-09-17T05:23:24.566Z,39.81
2022-09-17T05:23:56.028Z,39.94
2022-09-17T05:24:27.648Z,39.73
2022-09-17T05:24:59.085Z,39.46
2022-09-17T05:25:30.489Z,39.73
2022-09-17T05:26:02.068Z,39.73
2022-09-17T05:26:33.581Z,39.56
2022-09-17T05:27:05.026Z,39.77
2022-09-17T05:27:36.549Z,39.77
2022-09-17T05:28:08.067Z,39.68
2022-09-17T05:28:39.645Z,39.67
2022-09-17T05:29:11.116Z,39.89
2022-09-17T05:29:42.694Z,39.59
2022-09-17T05:30:14.111Z,39.73
2022-09-17T05:30:45.826Z,39.66
2022-09-17T05:31:17.272Z,39.77
2022-09-17T05:31:48.954Z,39.79
2022-09-17T05:32:20.442Z,39.65
2022-09-17T05:32:51.890Z,39.56
2022-09-17T05:33:23.336Z,39.69
2022-09-17T05:33:54.990Z,39.58
2022-09-17T05:34:26.682Z,39.82
2022-09-17T05:34:58.817Z,39.79
2022-09-17T05:35:32.071Z,39.69
2022-09-17T05:36:03.571Z,39.71
2022-09-17T05:36:35.335Z,39.78
2022-09-17T05:37:06.860Z,39.51
2022-09-17T05:37:38.255Z,39.56
2022-09-17T05:38:09.775Z,39.62
2022-09-17T05:38:41.246Z,39.57
2022-09-17T05:39:12.662Z,39.82
2022-09-17T05:39:44.076Z,39.55
2022-09-17T05:40:15.753Z,39.64
2022-09-17T05:40:47.201Z,39.80
2022-09-17T05:41:18.591Z,39.48
2022-09-17T05:41:50.138Z,39.61
2022-09-17T05:42:21.616Z,39.27
2022-09-17T05:42:53.084Z,39.54
2022-09-17T05:43:24.517Z,39.73
2022-09-17T05:43:56.202Z,39.48
2022-09-17T05:44:27.605Z,39.45
2022-09-17T05:44:59.014Z,39.51
2022-09-17T05:45:30.411Z,39.61
2022-09-17T05:46:01.856Z,39.66
2022-09-17T05:46:33.548Z,39.67
2022-09-17T05:47:05.046Z,39.71
2022-09-17T05:47:36.658Z,39.62
2022-09-17T05:48:08.049Z,39.50
2022-09-17T05:48:39.459Z,39.52
2022-09-17T05:49:10.877Z,39.64
2022-09-17T05:49:43.881Z,39.53
2022-09-17T05:50:15.337Z,39.45
2022-09-17T05:50:46.848Z,39.63
2022-09-17T05:51:18.320Z,39.66
2022-09-17T05:51:49.786Z,39.45
2022-09-17T05:52:21.262Z,39.65
2022-09-17T05:52:52.741Z,39.58
2022-09-17T05:53:24.287Z,39.58
2022-09-17T05:53:55.943Z,39.46
2022-09-17T05:54:27.735Z,39.62
2022-09-17T05:54:59.166Z,39.56
2022-09-17T05:55:30.683Z,39.53
2022-09-17T05:56:02.149Z,39.55
2022-09-17T05:56:33.838Z,39.62
2022-09-17T05:57:05.274Z,39.42
2022-09-17T05:57:36.882Z,39.51
2022-09-17T05:58:08.485Z,39.46
2022-09-17T05:58:39.931Z,39.42
2022-09-17T05:59:11.372Z,39.58
2022-09-17T05:59:43.006Z,39.52
2022-09-17T06:00:14.488Z,39.58
2022-09-17T06:00:45.921Z,39.56
2022-09-17T06:01:17.401Z,39.60
2022-09-17T06:01:48.894Z,39.59
2022-09-17T06:02:20.487Z,39.51
2022-09-17T06:02:52.123Z,39.67
2022-09-17T06:03:23.851Z,39.61
2022-09-17T06:03:55.356Z,39.68
2022-09-17T06:04:26.765Z,39.60
2022-09-17T06:04:58.349Z,39.67
2022-09-17T06:05:29.719Z,39.69
2022-09-17T06:06:01.145Z,39.54
2022-09-17T06:06:32.555Z,39.29
2022-09-17T06:07:04.017Z,39.54
2022-09-17T06:07:35.573Z,39.62
2022-09-17T06:08:06.994Z,39.71
2022-09-17T06:08:38.767Z,39.55
2022-09-17T06:09:10.187Z,39.53
2022-09-17T06:09:41.826Z,39.68
2022-09-17T06:10:13.215Z,39.70
2022-09-17T06:10:44.788Z,39.66
2022-09-17T06:11:16.253Z,39.79
2022-09-17T06:11:47.711Z,39.64
2022-09-17T06:12:19.170Z,39.51
2022-09-17T06:12:50.885Z,39.65
2022-09-17T06:13:28.088Z,39.56
2022-09-17T06:13:59.559Z,39.53
2022-09-17T06:14:31.201Z,39.61
2022-09-17T06:15:05.890Z,39.50
2022-09-17T06:15:37.418Z,39.63
2022-09-17T06:16:11.655Z,39.71
2022-09-17T06:16:43.192Z,39.59
2022-09-17T06:17:17.023Z,39.50
2022-09-17T06:17:51.699Z,39.56
2022-09-17T06:18:23.101Z,39.64
2022-09-17T06:18:54.542Z,39.51
2022-09-17T06:19:26.010Z,39.62
2022-09-17T06:19:57.448Z,39.50
2022-09-17T06:20:31.995Z,39.55
2022-09-17T06:21:03.572Z,39.72
2022-09-17T06:21:35.010Z,39.57
2022-09-17T06:22:06.411Z,39.48
2022-09-17T06:22:37.949Z,39.45
2022-09-17T06:23:13.919Z,39.65
2022-09-17T06:23:47.273Z,39.54
2022-09-17T06:24:18.815Z,39.63
2022-09-17T06:24:50.269Z,39.68
2022-09-17T06:25:21.692Z,39.77
2022-09-17T06:25:53.234Z,39.67
2022-09-17T06:26:24.658Z,39.47
2022-09-17T06:26:56.141Z,39.55
2022-09-17T06:27:27.649Z,39.56
2022-09-17T06:27:59.217Z,39.66
2022-09-17T06:28:30.673Z,39.48
2022-09-17T06:29:02.116Z,39.80
2022-09-17T06:29:33.727Z,39.58
2022-09-17T06:30:05.285Z,39.55
2022-09-17T06:30:36.922Z,39.45
2022-09-17T06:31:08.403Z,39.69
2022-09-17T06:31:40.028Z,39.58
2022-09-17T06:32:11.560Z,39.62
2022-09-17T06:32:42.976Z,39.72
2022-09-17T06:33:14.502Z,39.51
2022-09-17T06:33:46.122Z,39.52
2022-09-17T06:34:17.643Z,39.49
2022-09-17T06:34:49.063Z,39.57
2022-09-17T06:35:20.679Z,39.69
2022-09-17T06:35:52.098Z,39.58
2022-09-17T06:36:23.541Z,39.64
2022-09-17T06:36:54.962Z,39.71
2022-09-17T06:37:26.394Z,39.65
2022-09-17T06:37:57.902Z,39.61
2022-09-17T06:38:29.354Z,39.68
2022-09-17T06:39:01.093Z,39.65
2022-09-17T06:39:32.517Z,39.60
2022-09-17T06:40:04.097Z,39.75
2022-09-17T06:40:35.621Z,39.49
2022-09-17T06:41:07.163Z,39.66
2022-09-17T06:41:38.546Z,39.66
2022-09-17T06:42:10.016Z,39.42
2022-09-17T06:42:41.487Z,39.50
2022-09-17T06:43:12.887Z,39.32
2022-09-17T06:43:44.329Z,39.38
2022-09-17T06:44:15.828Z,39.48
2022-09-17T06:44:47.235Z,39.74
2022-09-17T06:45:18.678Z,39.72
2022-09-17T06:45:50.122Z,39.71
2022-09-17T06:46:21.660Z,39.60
2022-09-17T06:46:53.287Z,39.57
2022-09-17T06:47:27.432Z,39.59
2022-09-17T06:47:58.937Z,39.79
2022-09-17T06:48:30.623Z,39.77